createdAt,value
2023-03-12T00:00:25.340Z,100.71
2023-03-12T00:03:32.067Z,98.00
2023-03-12T00:06:37.917Z,98.84
2023-03-12T00:09:45.433Z,101.26
2023-03-12T00:12:51.341Z,100.92
2023-03-12T00:16:00.673Z,99.52
2023-03-12T00:19:06.568Z,98.74
2023-03-12T00:22:13.087Z,99.78
2023-03-12T00:25:21.263Z,104.07
2023-03-12T00:28:27.916Z,108.24
2023-03-12T00:31:37.388Z,106.36
2023-03-12T00:34:44.602Z,107.00
2023-03-12T00:37:50.288Z,117.36
2023-03-12T00:40:56.930Z,114.75
2023-03-12T00:44:03.077Z,115.60
2023-03-12T00:47:13.225Z,111.16
2023-03-12T00:50:19.586Z,104.07
2023-03-12T00:53:26.279Z,111.59
2023-03-12T00:56:32.062Z,106.82
2023-03-12T00:59:40.609Z,113.16
2023-03-12T01:02:49.436Z,114.93
2023-03-12T01:05:57.562Z,106.48
2023-03-12T01:09:05.655Z,100.06
2023-03-12T01:12:12.552Z,102.25
2023-03-12T01:15:21.331Z,100.34
2023-03-12T01:18:30.659Z,96.63
2023-03-12T01:21:36.361Z,98.73
2023-03-12T01:24:43.383Z,105.25
2023-03-12T01:27:49.267Z,105.80
2023-03-12T01:30:56.404Z,106.30
2023-03-12T01:34:04.828Z,112.57
2023-03-12T01:37:11.598Z,113.37
2023-03-12T01:40:19.825Z,115.79
2023-03-12T01:43:33.062Z,113.47
2023-03-12T01:46:43.279Z,116.91
2023-03-12T01:50:06.252Z,118.88
2023-03-12T01:53:12.362Z,117.15
2023-03-12T01:56:22.412Z,116.75
2023-03-12T01:59:36.499Z,116.15
2023-03-12T02:02:46.327Z,118.78
2023-03-12T02:06:09.656Z,115.89
2023-03-12T02:09:20.302Z,114.88
2023-03-12T02:12:27.659Z,117.83
2023-03-12T02:15:36.927Z,117.58
2023-03-12T02:18:42.997Z,120.11
2023-03-12T02:21:52.983Z,117.16
2023-03-12T02:25:10.714Z,114.09
2023-03-12T02:28:24.712Z,114.27
2023-03-12T02:31:40.489Z,111.51
2023-03-12T02:34:48.246Z,111.73
2023-03-12T02:37:57.944Z,111.55
2023-03-12T02:41:10.332Z,113.16
2023-03-12T02:44:25.289Z,112.24
2023-03-12T02:47:33.037Z,115.21
2023-03-12T02:50:38.987Z,110.38
2023-03-12T02:53:46.780Z,106.74
2023-03-12T02:56:54.028Z,106.69
2023-03-12T03:00:04.440Z,106.53
2023-03-12T03:03:10.610Z,107.78
2023-03-12T03:06:18.332Z,106.12
2023-03-12T03:09:24.585Z,105.19
2023-03-12T03:12:31.455Z,146.04
2023-03-12T03:15:41.845Z,147.47
2023-03-12T03:18:48.740Z,282.68
2023-03-12T03:21:54.575Z,238.04
2023-03-12T03:25:01.619Z,149.14
2023-03-12T03:28:08.345Z,206.09
2023-03-12T03:31:18.105Z,105.86
2023-03-12T03:34:24.042Z,94.48
2023-03-12T03:37:30.891Z,96.70
2023-03-12T03:40:38.372Z,105.21
2023-03-12T03:43:45.379Z,116.68
2023-03-12T03:46:56.336Z,124.03
2023-03-12T03:50:15.271Z,120.07
2023-03-12T03:53:22.154Z,131.69
2023-03-12T03:56:29.462Z,133.74
2023-03-12T03:59:37.112Z,132.90
2023-03-12T04:02:47.013Z,131.74
2023-03-12T04:05:58.515Z,133.43
2023-03-12T04:09:06.270Z,136.29
2023-03-12T04:12:14.757Z,138.12
2023-03-12T04:15:22.295Z,130.04
2023-03-12T04:18:34.354Z,128.36
2023-03-12T04:21:44.446Z,128.33
2023-03-12T04:24:55.723Z,123.30
2023-03-12T04:28:03.147Z,123.71
2023-03-12T04:31:11.305Z,127.64
2023-03-12T04:34:25.350Z,123.65
2023-03-12T04:37:36.073Z,127.99
2023-03-12T04:40:44.335Z,133.69
2023-03-12T04:43:50.638Z,136.49
2023-03-12T04:46:58.552Z,130.60
2023-03-12T04:50:09.482Z,126.67
2023-03-12T04:53:16.261Z,123.13
2023-03-12T04:56:22.266Z,120.22
2023-03-12T04:59:31.898Z,115.73
2023-03-12T05:02:37.889Z,119.23
2023-03-12T05:05:47.482Z,120.28
2023-03-12T05:08:55.116Z,122.44
2023-03-12T05:12:01.948Z,124.67
2023-03-12T05:15:09.516Z,126.77
2023-03-12T05:18:17.555Z,133.80
2023-03-12T05:21:26.421Z,135.98
2023-03-12T05:24:35.332Z,136.34
2023-03-12T05:27:41.805Z,137.74
2023-03-12T05:30:49.483Z,141.68
2023-03-12T05:33:56.780Z,142.49
2023-03-12T05:37:06.581Z,138.23
2023-03-12T05:40:15.842Z,138.00
2023-03-12T05:43:22.814Z,134.64
2023-03-12T05:46:31.018Z,134.54
2023-03-12T05:49:39.351Z,136.65
2023-03-12T05:52:47.808Z,126.27
2023-03-12T05:55:54.494Z,124.02
2023-03-12T05:59:00.786Z,149.29
2023-03-12T06:02:08.899Z,131.75
2023-03-12T06:05:15.920Z,126.30
2023-03-12T06:08:25.170Z,130.74
2023-03-12T06:11:32.331Z,130.96
2023-03-12T06:14:39.000Z,128.25
2023-03-12T06:17:45.796Z,129.25
2023-03-12T06:20:52.327Z,127.85
2023-03-12T06:24:01.528Z,131.09
2023-03-12T06:27:27.449Z,126.46
2023-03-12T06:30:33.306Z,130.25
2023-03-12T06:33:40.033Z,133.92
2023-03-12T06:36:45.828Z,131.54
2023-03-12T06:39:55.405Z,127.36
2023-03-12T06:43:01.145Z,127.34
2023-03-12T06:46:11.661Z,127.10
2023-03-12T06:49:18.135Z,132.68
2023-03-12T06:52:24.715Z,142.72
2023-03-12T06:55:32.985Z,148.41
2023-03-12T06:58:39.816Z,144.57
2023-03-12T07:01:45.720Z,147.02
2023-03-12T07:04:52.511Z,142.67
2023-03-12T07:07:58.423Z,144.73
2023-03-12T07:11:08.177Z,145.50
2023-03-12T07:14:14.419Z,155.63
2023-03-12T07:17:21.054Z,144.40
2023-03-12T07:20:26.933Z,147.36
2023-03-12T07:23:33.599Z,152.24
2023-03-12T07:26:43.770Z,150.36
2023-03-12T07:29:50.471Z,151.46
2023-03-12T07:32:56.280Z,149.48
2023-03-12T07:36:04.021Z,145.95
2023-03-12T07:39:09.914Z,154.57
2023-03-12T07:42:19.166Z,143.54
2023-03-12T07:45:27.843Z,151.05
2023-03-12T07:48:34.641Z,151.37
2023-03-12T07:51:40.762Z,155.40
2023-03-12T07:54:48.058Z,154.48
2023-03-12T07:57:58.660Z,150.35
2023-03-12T08:01:06.796Z,152.59
2023-03-12T08:04:13.676Z,159.36
2023-03-12T08:07:20.659Z,164.78
2023-03-12T08:10:27.101Z,151.58
2023-03-12T08:13:36.895Z,151.61
2023-03-12T08:16:42.611Z,130.18
2023-03-12T08:19:49.429Z,115.41
2023-03-12T08:22:55.269Z,128.67
2023-03-12T08:26:02.407Z,132.63
2023-03-12T08:29:10.943Z,127.57
2023-03-12T08:32:18.124Z,114.95
2023-03-12T08:35:23.973Z,87.88
2023-03-12T08:38:30.812Z,99.32
2023-03-12T08:41:36.725Z,98.53
2023-03-12T08:44:46.091Z,90.77
2023-03-12T08:47:51.884Z,102.52
2023-03-12T08:50:59.885Z,99.34
2023-03-12T08:54:05.819Z,89.64
2023-03-12T08:57:12.437Z,89.22
2023-03-12T09:00:22.404Z,90.23
2023-03-12T09:03:29.783Z,94.83
2023-03-12T09:06:36.593Z,99.52
2023-03-12T09:09:43.644Z,88.58
2023-03-12T09:12:49.350Z,83.11
2023-03-12T09:16:03.172Z,86.41
2023-03-12T09:19:09.161Z,84.85
2023-03-12T09:22:16.267Z,85.61
2023-03-12T09:25:23.543Z,118.42
2023-03-12T09:28:30.377Z,103.38
2023-03-12T09:31:38.831Z,97.16
2023-03-12T09:34:45.602Z,56.17
2023-03-12T09:37:52.875Z,45.23
2023-03-12T09:40:59.528Z,44.79
2023-03-12T09:44:16.836Z,45.11
2023-03-12T09:47:37.631Z,50.20
2023-03-12T09:50:49.162Z,42.11
2023-03-12T09:54:03.310Z,46.79
2023-03-12T09:57:21.188Z,46.01
2023-03-12T10:00:34.736Z,41.70
2023-03-12T10:04:18.513Z,37.23
2023-03-12T10:07:38.531Z,41.79
2023-03-12T10:10:58.477Z,45.52
2023-03-12T10:14:32.001Z,44.05
2023-03-12T10:18:02.924Z,43.42
2023-03-12T10:21:32.435Z,56.55
2023-03-12T10:25:02.299Z,71.06
2023-03-12T10:28:22.193Z,53.70
2023-03-12T10:31:35.035Z,62.04
2023-03-12T10:34:48.788Z,48.63
2023-03-12T10:38:01.722Z,43.93
2023-03-12T10:41:24.330Z,40.14
2023-03-12T10:44:32.515Z,41.46
2023-03-12T10:47:41.679Z,44.97
2023-03-12T10:51:03.805Z,38.56
2023-03-12T10:54:26.541Z,36.73
2023-03-12T10:57:45.276Z,31.70
2023-03-12T11:01:01.274Z,39.66
2023-03-12T11:04:26.937Z,43.91
2023-03-12T11:07:37.428Z,34.95
2023-03-12T11:10:52.459Z,28.37
2023-03-12T11:14:18.592Z,24.27
2023-03-12T11:17:30.316Z,25.32
2023-03-12T11:20:37.077Z,25.00
2023-03-12T11:23:48.429Z,29.26
2023-03-12T11:27:10.763Z,44.33
2023-03-12T11:30:24.785Z,39.98
2023-03-12T11:33:32.288Z,29.65
2023-03-12T11:36:54.405Z,31.75
2023-03-12T11:40:32.188Z,33.10
2023-03-12T11:44:07.813Z,30.49
2023-03-12T11:47:41.048Z,38.41
2023-03-12T11:51:13.636Z,34.01
2023-03-12T11:54:48.723Z,38.72
2023-03-12T11:58:20.401Z,46.40
2023-03-12T12:01:54.517Z,49.61
2023-03-12T12:05:30.788Z,38.03
2023-03-12T12:09:01.926Z,57.09
2023-03-12T12:12:42.293Z,44.75
2023-03-12T12:16:08.108Z,37.62
2023-03-12T12:19:39.315Z,34.68
2023-03-12T12:23:08.453Z,38.60
2023-03-12T12:26:21.356Z,35.09
2023-03-12T12:29:56.829Z,38.66
2023-03-12T12:33:27.939Z,38.69
2023-03-12T12:36:39.749Z,30.91
2023-03-12T12:39:59.418Z,27.50
2023-03-12T12:43:28.272Z,28.39
2023-03-12T12:46:40.550Z,29.18
2023-03-12T12:49:52.292Z,27.11
2023-03-12T12:53:17.043Z,26.12
2023-03-12T12:56:36.625Z,37.74
2023-03-12T12:59:52.288Z,28.31
2023-03-12T13:03:01.100Z,77.46
2023-03-12T13:06:11.543Z,29.52
2023-03-12T13:09:37.099Z,32.55
2023-03-12T13:12:55.725Z,31.68
2023-03-12T13:16:30.058Z,28.58
2023-03-12T13:19:51.979Z,34.01
2023-03-12T13:23:34.542Z,41.93
2023-03-12T13:27:01.189Z,42.30
2023-03-12T13:30:51.367Z,145.52
2023-03-12T13:34:02.543Z,532.68
2023-03-12T13:37:30.689Z,132.86
2023-03-12T13:41:00.985Z,184.13
2023-03-12T13:44:42.466Z,53.30
2023-03-12T13:47:50.061Z,59.65
2023-03-12T13:51:01.493Z,52.49
2023-03-12T13:54:08.619Z,118.10
2023-03-12T13:57:29.328Z,70.11
2023-03-12T14:00:52.142Z,58.12
2023-03-12T14:04:07.069Z,59.21
2023-03-12T14:08:14.433Z,56.53
2023-03-12T14:11:44.202Z,64.77
2023-03-12T14:15:23.045Z,58.70
2023-03-12T14:18:39.016Z,59.41
2023-03-12T14:21:51.251Z,69.57
2023-03-12T14:25:07.889Z,67.29
2023-03-12T14:28:21.625Z,76.51
2023-03-12T14:31:32.143Z,231.56
2023-03-12T14:34:49.379Z,76.36
2023-03-12T14:38:06.350Z,85.60
2023-03-12T14:41:22.593Z,217.23
2023-03-12T14:44:32.491Z,127.83
2023-03-12T14:47:44.208Z,81.31
2023-03-12T14:50:55.101Z,69.92
2023-03-12T14:54:07.406Z,71.11
2023-03-12T14:57:24.767Z,74.83
2023-03-12T15:00:32.858Z,75.44
2023-03-12T15:03:48.341Z,76.31
2023-03-12T15:07:04.519Z,97.58
2023-03-12T15:10:25.471Z,70.88
2023-03-12T15:13:32.528Z,119.46
2023-03-12T15:16:40.071Z,68.73
2023-03-12T15:19:46.998Z,75.87
2023-03-12T15:22:57.404Z,66.87
2023-03-12T15:26:15.978Z,66.28
2023-03-12T15:29:30.423Z,64.36
2023-03-12T15:32:36.545Z,75.59
2023-03-12T15:36:00.339Z,64.09
2023-03-12T15:39:29.870Z,72.01
2023-03-12T15:42:46.577Z,78.29
2023-03-12T15:46:03.087Z,80.09
2023-03-12T15:49:24.231Z,78.96
2023-03-12T15:52:35.665Z,85.15
2023-03-12T15:55:45.344Z,97.21
2023-03-12T15:59:05.709Z,99.70
2023-03-12T16:02:15.325Z,110.85
2023-03-12T16:05:23.244Z,100.46
2023-03-12T16:08:39.580Z,94.75
2023-03-12T16:11:48.404Z,98.94
2023-03-12T16:14:56.015Z,142.58
2023-03-12T16:18:02.979Z,126.84
2023-03-12T16:21:09.924Z,131.13
2023-03-12T16:24:17.330Z,107.66
2023-03-12T16:27:32.493Z,129.21
2023-03-12T16:30:40.539Z,113.55
2023-03-12T16:33:47.671Z,221.94
2023-03-12T16:36:54.295Z,161.33
2023-03-12T16:40:01.657Z,138.55
2023-03-12T16:43:21.506Z,177.67
2023-03-12T16:46:33.863Z,300.49
2023-03-12T16:49:39.789Z,376.95
2023-03-12T16:52:51.275Z,216.95
2023-03-12T16:56:01.104Z,328.67
2023-03-12T16:59:26.112Z,888.93
2023-03-12T17:02:32.554Z,1014.40
2023-03-12T17:05:39.214Z,2592.81
2023-03-12T17:08:46.161Z,1663.24
2023-03-12T17:11:55.626Z,1614.70
2023-03-12T17:15:07.801Z,706.31
2023-03-12T17:18:15.454Z,501.13
2023-03-12T17:21:22.968Z,535.63
2023-03-12T17:24:29.695Z,420.74
2023-03-12T17:27:35.696Z,282.75
2023-03-12T17:30:47.536Z,422.67
2023-03-12T17:33:53.574Z,296.69
2023-03-12T17:37:00.239Z,207.74
2023-03-12T17:40:08.328Z,183.01
2023-03-12T17:43:15.309Z,145.00
2023-03-12T17:46:24.069Z,172.08
2023-03-12T17:49:32.384Z,120.30
2023-03-12T17:52:38.340Z,114.81
2023-03-12T17:55:45.766Z,154.86
2023-03-12T17:58:51.871Z,133.57
2023-03-12T18:02:01.091Z,133.09
2023-03-12T18:05:07.549Z,132.33
2023-03-12T18:08:15.317Z,122.29
2023-03-12T18:11:21.105Z,150.23
2023-03-12T18:14:28.067Z,168.33
2023-03-12T18:17:36.569Z,163.02
2023-03-12T18:20:43.424Z,145.51
2023-03-12T18:23:49.138Z,185.73
2023-03-12T18:26:55.732Z,176.08
2023-03-12T18:30:01.490Z,194.26
2023-03-12T18:33:10.743Z,243.96
2023-03-12T18:36:16.706Z,243.88
2023-03-12T18:39:23.737Z,194.20
2023-03-12T18:42:29.956Z,203.87
2023-03-12T18:45:36.543Z,217.04
2023-03-12T18:48:44.912Z,209.49
2023-03-12T18:51:53.617Z,1223.75
2023-03-12T18:54:59.480Z,4342.76
2023-03-12T18:58:06.111Z,3444.32
2023-03-12T19:01:14.025Z,1528.04
2023-03-12T19:04:26.040Z,4594.12
2023-03-12T19:07:32.022Z,2698.39
2023-03-12T19:10:38.775Z,2230.38
2023-03-12T19:13:49.664Z,856.54
2023-03-12T19:16:56.459Z,747.93
2023-03-12T19:20:06.153Z,510.99
2023-03-12T19:23:12.870Z,424.56
2023-03-12T19:26:18.616Z,424.73
2023-03-12T19:29:25.386Z,509.03
2023-03-12T19:32:42.559Z,1105.52
2023-03-12T19:35:54.591Z,594.55
2023-03-12T19:39:02.364Z,262.93
2023-03-12T19:42:11.384Z,238.39
2023-03-12T19:45:17.144Z,198.23
2023-03-12T19:48:25.378Z,175.83
2023-03-12T19:51:34.370Z,161.68
2023-03-12T19:54:44.064Z,146.72
2023-03-12T19:57:51.162Z,142.51
2023-03-12T20:01:00.430Z,142.70
2023-03-12T20:04:08.538Z,153.09
2023-03-12T20:07:18.729Z,153.84
2023-03-12T20:10:26.009Z,144.90
2023-03-12T20:13:32.877Z,145.23
2023-03-12T20:16:39.096Z,143.98
2023-03-12T20:19:45.846Z,123.76
2023-03-12T20:22:57.338Z,109.03
2023-03-12T20:26:04.109Z,138.43
2023-03-12T20:29:10.122Z,150.29
2023-03-12T20:32:16.866Z,136.26
2023-03-12T20:35:22.698Z,145.02
2023-03-12T20:38:31.876Z,136.01
2023-03-12T20:41:38.797Z,147.36
2023-03-12T20:44:45.407Z,138.44
2023-03-12T20:47:51.392Z,141.83
2023-03-12T20:50:58.724Z,145.21
2023-03-12T20:54:07.426Z,137.62
2023-03-12T20:57:13.916Z,139.90
2023-03-12T21:00:21.677Z,131.01
2023-03-12T21:03:28.428Z,130.75
2023-03-12T21:06:34.213Z,119.35
2023-03-12T21:09:43.447Z,112.86
2023-03-12T21:12:49.457Z,113.23
2023-03-12T21:15:56.412Z,153.41
2023-03-12T21:19:02.793Z,136.41
2023-03-12T21:22:09.601Z,130.70
2023-03-12T21:25:18.979Z,127.83
2023-03-12T21:28:25.592Z,146.41
2023-03-12T21:31:31.522Z,131.24
2023-03-12T21:34:38.461Z,137.79
2023-03-12T21:37:44.664Z,194.28
2023-03-12T21:40:54.499Z,139.86
2023-03-12T21:44:05.242Z,150.92
2023-03-12T21:47:12.177Z,187.04
2023-03-12T21:50:18.149Z,163.17
2023-03-12T21:53:24.753Z,128.67
2023-03-12T21:56:33.263Z,205.88
2023-03-12T21:59:40.331Z,157.97
2023-03-12T22:02:51.310Z,217.25
2023-03-12T22:05:57.938Z,172.14
2023-03-12T22:09:03.796Z,167.27
2023-03-12T22:12:13.626Z,159.97
2023-03-12T22:15:19.541Z,135.50
2023-03-12T22:18:27.185Z,107.93
2023-03-12T22:21:33.897Z,110.73
2023-03-12T22:24:40.955Z,107.50
2023-03-12T22:27:49.665Z,102.69
2023-03-12T22:31:01.999Z,92.34
2023-03-12T22:34:07.987Z,88.02
2023-03-12T22:37:15.403Z,78.16
2023-03-12T22:40:21.457Z,73.89
2023-03-12T22:43:31.422Z,69.84
2023-03-12T22:46:37.418Z,64.49
2023-03-12T22:49:44.264Z,63.10
2023-03-12T22:52:51.017Z,63.44
2023-03-12T22:56:01.861Z,64.11
2023-03-12T22:59:10.290Z,61.46
2023-03-12T23:02:17.244Z,59.48
2023-03-12T23:05:23.546Z,59.98
2023-03-12T23:08:31.854Z,58.90
2023-03-12T23:11:38.008Z,54.57
2023-03-12T23:14:47.403Z,56.56
2023-03-12T23:17:53.078Z,58.03
2023-03-12T23:21:02.482Z,59.07
2023-03-12T23:24:09.406Z,58.79
2023-03-12T23:27:15.948Z,59.77
2023-03-12T23:30:24.586Z,56.41
2023-03-12T23:33:33.124Z,54.60
2023-03-12T23:36:39.188Z,58.14
2023-03-12T23:39:54.360Z,60.43
2023-03-12T23:43:00.846Z,61.43
2023-03-12T23:46:12.799Z,65.69
2023-03-12T23:49:18.686Z,67.25
2023-03-12T23:52:28.618Z,64.69
2023-03-12T23:55:34.457Z,65.40
2023-03-12T23:58:41.558Z,62.85
